Time;durP1;ratioP1;P1;durP2;ratioP2;P2;SDS_P1;SDS_P2;PMS_P1;PMS_P2;Temp;Humidity;BMP_temperature;BMP_pressure;BME280_temperature;BME280_humidity;BME280_pressure;Samples;Min_cycle;Max_cycle;Signal;HPM_P1;HPM_P2
2022/10/09 00:00:40;;;;;;;9.75;2.25;;;8.70;99.90;;;;;;6240458;22;20012;-86
2022/10/09 00:03:06;;;;;;;6.97;1.42;;;8.70;99.90;;;;;;6241639;22;20012;-86
2022/10/09 00:05:32;;;;;;;7.22;1.80;;;8.60;99.90;;;;;;6241638;22;20047;-86
2022/10/09 00:07:57;;;;;;;7.45;1.73;;;8.60;99.90;;;;;;6240898;22;20016;-86
2022/10/09 00:10:23;;;;;;;6.50;1.75;;;8.60;99.90;;;;;;6239370;23;20038;-86
2022/10/09 00:12:49;;;;;;;10.57;2.00;;;8.60;99.90;;;;;;6238929;23;20012;-86
2022/10/09 00:15:14;;;;;;;4.50;1.73;;;8.50;99.90;;;;;;6213628;23;20019;-86
2022/10/09 00:17:40;;;;;;;9.38;2.20;;;8.50;99.90;;;;;;6239341;23;20053;-86
2022/10/09 00:20:06;;;;;;;7.32;1.63;;;8.50;99.90;;;;;;6239740;23;20040;-85
2022/10/09 00:22:32;;;;;;;12.70;1.83;;;8.50;99.90;;;;;;6241561;22;20206;-86
2022/10/09 00:24:57;;;;;;;8.48;1.60;;;8.50;99.90;;;;;;6243169;23;20013;-86
2022/10/09 00:27:23;;;;;;;7.68;1.88;;;8.50;99.90;;;;;;6216324;23;20016;-85
2022/10/09 00:29:49;;;;;;;7.40;2.05;;;8.60;99.90;;;;;;6241414;23;20466;-86
2022/10/09 00:32:16;;;;;;;7.80;1.70;;;8.50;99.90;;;;;;6215604;23;20012;-86
2022/10/09 00:34:42;;;;;;;7.03;2.00;;;8.50;99.90;;;;;;6241386;23;20446;-86
2022/10/09 00:37:08;;;;;;;7.65;1.80;;;8.40;99.90;;;;;;6242077;23;20019;-85
2022/10/09 00:39:34;;;;;;;12.63;2.47;;;8.40;99.90;;;;;;6241210;23;20349;-85
2022/10/09 00:42:00;;;;;;;9.77;2.13;;;8.40;99.90;;;;;;6243057;23;20058;-85
2022/10/09 00:44:51;;;;;;;7.40;1.92;;;8.40;99.90;;;;;;6242696;22;20016;-85
2022/10/09 00:47:25;;;;;;;7.72;1.98;;;8.40;99.90;;;;;;6241238;23;20020;-86
2022/10/09 00:49:56;;;;;;;10.95;2.17;;;8.70;99.90;;;;;;6242950;22;20084;-85
2022/10/09 00:52:23;;;;;;;6.05;1.80;;;8.40;99.90;;;;;;6243402;22;20020;-86
2022/10/09 00:54:50;;;;;;;7.47;2.10;;;8.30;99.90;;;;;;6242893;22;20387;-86
2022/10/09 00:57:16;;;;;;;5.72;2.28;;;8.30;99.90;;;;;;6242960;23;20054;-86
2022/10/09 00:59:41;;;;;;;8.57;2.70;;;8.30;99.90;;;;;;6242899;23;20369;-86
2022/10/09 01:02:07;;;;;;;7.85;2.53;;;8.30;99.90;;;;;;6241293;23;20392;-86
2022/10/09 01:04:33;;;;;;;8.32;2.47;;;8.30;99.90;;;;;;6216219;23;20020;-86
2022/10/09 01:07:06;;;;;;;8.02;2.47;;;8.20;99.90;;;;;;6240996;23;20016;-85
2022/10/09 01:09:50;;;;;;;5.80;2.10;;;8.20;99.90;;;;;;6242297;22;20442;-86
2022/10/09 01:12:34;;;;;;;10.63;3.05;;;8.20;99.90;;;;;;6240796;23;20023;-86
2022/10/09 01:15:26;;;;;;;8.53;2.70;;;8.10;99.90;;;;;;6243182;22;20008;-86
2022/10/09 01:18:05;;;;;;;11.38;3.28;;;8.10;99.90;;;;;;6221237;23;20445;-86
2022/10/09 01:20:40;;;;;;;6.53;2.40;;;8.10;99.90;;;;;;6241562;23;20020;-86
2022/10/09 01:23:25;;;;;;;7.65;2.65;;;8.00;99.90;;;;;;6242584;22;20012;-86
2022/10/09 01:26:02;;;;;;;7.50;3.28;;;8.00;99.90;;;;;;6242689;23;20070;-85
2022/10/09 01:28:29;;;;;;;8.40;3.25;;;8.00;99.90;;;;;;6240213;23;20107;-86
2022/10/09 01:31:01;;;;;;;14.07;3.47;;;8.00;99.90;;;;;;6240741;23;20079;-85
2022/10/09 01:33:29;;;;;;;10.27;3.88;;;8.00;99.90;;;;;;6240847;23;20398;-86
2022/10/09 01:35:55;;;;;;;7.50;2.95;;;8.00;99.90;;;;;;6241057;23;20506;-86
2022/10/09 01:38:23;;;;;;;9.23;4.57;;;7.90;99.90;;;;;;6240649;23;20016;-85
2022/10/09 01:40:51;;;;;;;6.95;2.40;;;7.90;99.90;;;;;;6242493;22;20012;-86
2022/10/09 01:43:16;;;;;;;7.95;2.58;;;7.90;99.90;;;;;;6241739;22;20048;-86
2022/10/09 01:45:43;;;;;;;9.10;3.25;;;8.20;99.90;;;;;;6240783;23;20340;-85
2022/10/09 01:48:18;;;;;;;11.75;3.42;;;7.90;99.90;;;;;;6243006;22;20078;-86
2022/10/09 01:50:47;;;;;;;12.30;3.58;;;7.90;99.90;;;;;;6242631;22;20062;-85
2022/10/09 01:53:18;;;;;;;6.93;2.85;;;7.80;99.90;;;;;;6242800;22;20016;-85
2022/10/09 01:56:13;;;;;;;7.82;3.60;;;7.80;99.90;;;;;;6241817;22;20027;-86
2022/10/09 01:58:56;;;;;;;8.82;3.63;;;7.80;99.90;;;;;;6237697;23;20039;-86
2022/10/09 02:01:27;;;;;;;9.38;3.50;;;7.80;99.90;;;;;;6240305;23;20165;-85
2022/10/09 02:03:55;;;;;;;7.95;3.03;;;7.70;99.90;;;;;;6240621;23;20083;-86
2022/10/09 02:06:21;;;;;;;8.63;3.63;;;7.70;99.90;;;;;;6240528;23;20020;-86
2022/10/09 02:08:50;;;;;;;9.45;3.72;;;7.70;99.90;;;;;;6215470;23;20035;-86
2022/10/09 02:11:16;;;;;;;12.75;3.65;;;7.70;99.90;;;;;;6240201;23;20019;-86
2022/10/09 02:13:44;;;;;;;7.57;2.90;;;7.70;99.90;;;;;;6242388;22;20020;-86
2022/10/09 02:16:30;;;;;;;9.95;3.45;;;7.60;99.90;;;;;;6240212;23;20008;-85
2022/10/09 02:19:01;;;;;;;8.20;3.70;;;7.60;99.90;;;;;;6242330;22;20495;-86
2022/10/09 02:21:33;;;;;;;14.68;5.35;;;7.60;99.90;;;;;;6242648;23;20340;-86
2022/10/09 02:24:01;;;;;;;10.90;4.32;;;7.60;99.90;;;;;;6240032;23;20019;-86
2022/10/09 02:26:27;;;;;;;10.73;4.47;;;7.60;99.90;;;;;;6239606;23;20461;-86
2022/10/09 02:28:53;;;;;;;9.98;4.47;;;7.60;99.90;;;;;;6215277;23;20288;-87
2022/10/09 02:31:28;;;;;;;12.98;4.25;;;7.50;99.90;;;;;;6239940;23;20020;-86
2022/10/09 02:33:56;;;;;;;11.75;4.32;;;7.50;99.90;;;;;;6240473;23;20035;-86
2022/10/09 02:36:22;;;;;;;10.63;4.85;;;7.50;99.90;;;;;;6242126;22;20101;-86
2022/10/09 02:38:48;;;;;;;9.50;4.40;;;7.50;99.90;;;;;;6241976;22;20023;-85
2022/10/09 02:41:13;;;;;;;10.20;4.47;;;7.50;99.90;;;;;;6214398;23;20094;-86
2022/10/09 02:43:39;;;;;;;9.35;4.22;;;7.50;99.90;;;;;;6240262;23;20087;-86
2022/10/09 02:46:04;;;;;;;12.30;4.55;;;7.50;99.90;;;;;;6240430;23;20440;-86
2022/10/09 02:48:30;;;;;;;11.60;4.60;;;7.50;99.90;;;;;;6214705;23;20039;-86
2022/10/09 02:50:56;;;;;;;8.90;4.50;;;7.40;99.90;;;;;;6241186;23;20016;-86
2022/10/09 02:53:21;;;;;;;8.63;4.60;;;7.40;99.90;;;;;;6239886;23;20055;-86
2022/10/09 02:55:47;;;;;;;10.73;4.35;;;7.40;99.90;;;;;;6239059;23;20118;-86
2022/10/09 02:58:13;;;;;;;12.23;4.55;;;7.40;99.90;;;;;;6240265;23;20020;-86
2022/10/09 03:00:38;;;;;;;12.05;4.72;;;7.40;99.90;;;;;;6239521;23;20014;-85
2022/10/09 03:03:04;;;;;;;9.60;4.97;;;7.40;99.90;;;;;;6239717;23;20349;-86
2022/10/09 03:05:29;;;;;;;11.77;4.90;;;7.40;99.90;;;;;;6240008;23;20449;-86
2022/10/09 03:07:55;;;;;;;12.63;5.50;;;7.30;99.90;;;;;;6240104;23;20016;-86
2022/10/09 03:10:21;;;;;;;9.55;4.93;;;7.30;99.90;;;;;;6241230;23;20016;-85
2022/10/09 03:12:47;;;;;;;13.35;5.82;;;7.30;99.90;;;;;;6240306;23;20044;-86
2022/10/09 03:15:14;;;;;;;9.75;5.15;;;7.30;99.90;;;;;;6239882;23;20016;-86
2022/10/09 03:17:39;;;;;;;12.00;5.93;;;7.30;99.90;;;;;;6239965;23;20016;-85
2022/10/09 03:20:06;;;;;;;10.93;5.07;;;7.30;99.90;;;;;;6241968;23;20087;-85
2022/10/09 03:22:31;;;;;;;11.65;5.93;;;7.30;99.90;;;;;;6239861;23;20011;-86
2022/10/09 03:24:57;;;;;;;10.52;6.10;;;7.20;99.90;;;;;;6239590;23;20019;-86
2022/10/09 03:27:22;;;;;;;10.90;6.03;;;7.20;99.90;;;;;;6239595;23;20016;-85
2022/10/09 03:29:48;;;;;;;8.90;5.88;;;7.20;99.90;;;;;;6214547;23;20015;-86
2022/10/09 03:32:14;;;;;;;10.98;5.90;;;7.20;99.90;;;;;;6239826;23;20043;-86
2022/10/09 03:34:39;;;;;;;12.65;5.85;;;7.20;99.90;;;;;;6241539;23;20012;-86
2022/10/09 03:37:05;;;;;;;13.48;5.72;;;7.70;99.90;;;;;;6239539;23;20012;-85
2022/10/09 03:39:31;;;;;;;11.73;6.07;;;7.20;99.90;;;;;;6241188;23;20023;-86
2022/10/09 03:41:57;;;;;;;13.65;5.88;;;7.10;99.90;;;;;;6241450;23;20012;-86
2022/10/09 03:44:25;;;;;;;16.52;6.97;;;7.10;99.90;;;;;;6239631;23;20044;-86
2022/10/09 03:46:51;;;;;;;17.63;6.90;;;7.10;99.90;;;;;;6214461;23;20034;-86
2022/10/09 03:49:17;;;;;;;15.93;6.15;;;7.10;99.90;;;;;;6214038;23;20014;-86
2022/10/09 03:51:42;;;;;;;11.73;6.45;;;7.10;99.90;;;;;;6240017;23;20440;-86
2022/10/09 03:54:08;;;;;;;11.65;6.15;;;7.10;99.90;;;;;;6241168;23;20020;-86
2022/10/09 03:56:34;;;;;;;15.65;7.00;;;7.10;99.90;;;;;;6214084;23;20027;-86
2022/10/09 03:58:59;;;;;;;11.63;7.10;;;7.10;99.90;;;;;;6240366;23;20012;-86
2022/10/09 04:01:25;;;;;;;13.43;6.07;;;7.10;99.90;;;;;;6241503;23;20012;-86
2022/10/09 04:03:50;;;;;;;11.48;6.38;;;7.10;99.90;;;;;;6239681;23;20016;-86
2022/10/09 04:06:16;;;;;;;11.63;6.10;;;7.10;99.90;;;;;;6240992;23;20333;-86
2022/10/09 04:08:42;;;;;;;13.73;6.70;;;7.10;99.90;;;;;;6238810;23;20495;-86
2022/10/09 04:11:07;;;;;;;14.82;7.25;;;7.10;99.90;;;;;;6241322;23;20012;-86
2022/10/09 04:13:33;;;;;;;13.60;6.63;;;7.00;99.90;;;;;;6241738;23;20012;-85
2022/10/09 04:15:59;;;;;;;13.20;6.32;;;7.00;99.90;;;;;;6239522;23;20016;-85
2022/10/09 04:18:25;;;;;;;12.65;6.88;;;7.00;99.90;;;;;;6239156;23;20051;-86
2022/10/09 04:20:52;;;;;;;10.88;6.18;;;7.00;99.90;;;;;;6240206;23;20063;-86
2022/10/09 04:23:19;;;;;;;10.80;6.50;;;7.00;99.90;;;;;;6214083;23;20020;-86
2022/10/09 04:25:45;;;;;;;8.68;6.25;;;7.00;99.90;;;;;;6238703;23;20004;-86
2022/10/09 04:28:11;;;;;;;16.65;7.05;;;7.00;99.90;;;;;;6238693;23;20779;-86
2022/10/09 04:30:37;;;;;;;13.05;6.05;;;6.90;99.90;;;;;;6214677;23;20020;-86
2022/10/09 04:33:03;;;;;;;11.13;6.13;;;6.90;99.90;;;;;;6241236;23;20011;-86
2022/10/09 04:35:28;;;;;;;14.68;6.82;;;6.90;99.90;;;;;;6215140;23;20062;-86
2022/10/09 04:37:54;;;;;;;11.30;6.00;;;6.90;99.90;;;;;;6242673;23;20147;-86
2022/10/09 04:40:20;;;;;;;14.43;5.70;;;6.80;99.90;;;;;;6239026;23;20414;-86
2022/10/09 04:42:45;;;;;;;12.82;7.65;;;6.80;99.90;;;;;;6242140;23;20042;-87
2022/10/09 04:45:11;;;;;;;12.48;6.65;;;6.80;99.90;;;;;;6241962;22;20310;-87
2022/10/09 04:47:37;;;;;;;10.20;6.00;;;6.80;99.90;;;;;;6240301;23;20429;-86
2022/10/09 04:50:03;;;;;;;15.77;6.78;;;6.80;99.90;;;;;;6239197;23;20074;-86
2022/10/09 04:52:29;;;;;;;11.85;6.30;;;6.80;99.90;;;;;;6242038;22;20329;-87
2022/10/09 04:54:55;;;;;;;13.18;6.43;;;6.80;99.90;;;;;;6239293;23;20024;-86
2022/10/09 04:57:20;;;;;;;14.80;6.60;;;6.80;99.90;;;;;;6241972;23;20012;-86
2022/10/09 04:59:46;;;;;;;13.05;6.45;;;6.80;99.90;;;;;;6242087;23;20332;-87
2022/10/09 05:02:11;;;;;;;15.02;6.35;;;6.80;99.90;;;;;;6242000;23;20044;-86
2022/10/09 05:04:37;;;;;;;14.85;6.57;;;6.80;99.90;;;;;;6238493;23;20013;-87
2022/10/09 05:07:03;;;;;;;13.82;6.90;;;6.80;99.90;;;;;;6242097;22;20004;-87
2022/10/09 05:09:29;;;;;;;16.25;6.30;;;6.70;99.90;;;;;;6243831;22;20019;-88
2022/10/09 05:11:55;;;;;;;13.52;6.93;;;6.70;99.90;;;;;;6244039;23;20019;-88
2022/10/09 05:14:20;;;;;;;13.07;6.40;;;6.70;99.90;;;;;;6243170;23;20046;-87
2022/10/09 05:16:50;;;;;;;12.07;6.60;;;6.70;99.90;;;;;;6244147;23;20094;-88
2022/10/09 05:19:16;;;;;;;14.70;6.93;;;6.80;99.90;;;;;;6245894;22;20019;-88
2022/10/09 05:21:42;;;;;;;11.05;6.40;;;6.70;99.90;;;;;;6244091;23;20101;-87
2022/10/09 05:24:08;;;;;;;12.88;6.65;;;6.70;99.90;;;;;;6218093;23;20441;-87
2022/10/09 05:26:33;;;;;;;14.13;6.97;;;7.00;99.90;;;;;;6244296;23;20016;-87
2022/10/09 05:28:59;;;;;;;13.07;7.50;;;6.60;99.90;;;;;;6216457;23;20334;-87
2022/10/09 05:31:27;;;;;;;16.05;6.93;;;6.60;99.90;;;;;;6242346;23;20616;-88
2022/10/09 05:33:55;;;;;;;11.85;6.18;;;6.60;99.90;;;;;;6246628;22;20309;-87
2022/10/09 05:36:21;;;;;;;12.25;6.93;;;6.60;99.90;;;;;;6245485;22;20013;-87
2022/10/09 05:38:49;;;;;;;11.23;6.28;;;6.60;99.90;;;;;;6243551;23;20083;-87
2022/10/09 05:41:19;;;;;;;16.35;9.88;;;6.60;99.90;;;;;;6242743;23;20346;-86
2022/10/09 05:43:47;;;;;;;13.18;8.57;;;6.60;99.90;;;;;;6245794;22;20013;-86
2022/10/09 05:46:14;;;;;;;16.08;9.30;;;6.60;99.90;;;;;;6245393;22;20012;-85
2022/10/09 05:48:43;;;;;;;17.85;11.00;;;6.60;99.90;;;;;;6242377;23;20016;-86
2022/10/09 05:51:11;;;;;;;15.60;9.43;;;6.60;99.90;;;;;;6242137;23;20091;-86
2022/10/09 05:53:38;;;;;;;16.38;9.02;;;6.60;99.90;;;;;;6242012;23;20030;-87
2022/10/09 05:56:12;;;;;;;16.48;9.40;;;6.50;99.90;;;;;;6242490;22;20092;-86
2022/10/09 05:58:37;;;;;;;10.82;7.03;;;6.50;99.90;;;;;;6243485;22;20075;-86
2022/10/09 06:01:03;;;;;;;16.42;8.05;;;6.50;99.90;;;;;;6240734;23;20039;-86
2022/10/09 06:03:28;;;;;;;12.15;7.35;;;6.50;99.90;;;;;;6214291;23;20016;-86
2022/10/09 06:06:02;;;;;;;12.65;7.43;;;6.50;99.90;;;;;;6240356;23;20213;-86
2022/10/09 06:08:27;;;;;;;14.77;7.78;;;6.50;99.90;;;;;;6240880;23;20059;-86
2022/10/09 06:10:53;;;;;;;18.13;8.63;;;6.50;99.90;;;;;;6242417;23;20028;-87
2022/10/09 06:13:19;;;;;;;13.27;8.50;;;6.50;99.90;;;;;;6240348;23;20344;-87
2022/10/09 06:15:54;;;;;;;14.00;8.30;;;6.50;99.90;;;;;;6242409;23;20066;-86
2022/10/09 06:18:20;;;;;;;13.27;8.25;;;6.50;99.90;;;;;;6241477;22;20004;-86
2022/10/09 06:20:53;;;;;;;16.38;8.60;;;6.50;99.90;;;;;;6242005;22;20390;-86
2022/10/09 06:23:18;;;;;;;18.30;9.10;;;6.50;99.90;;;;;;6241924;22;20012;-86
2022/10/09 06:25:55;;;;;;;21.42;10.38;;;6.40;99.90;;;;;;6239890;23;20065;-86
2022/10/09 06:28:21;;;;;;;13.30;9.07;;;6.50;99.90;;;;;;6242517;22;20078;-85
2022/10/09 06:30:48;;;;;;;12.52;7.57;;;6.50;99.90;;;;;;6242019;22;20093;-86
2022/10/09 06:33:14;;;;;;;13.90;8.82;;;6.40;99.90;;;;;;6239840;22;20020;-86
2022/10/09 06:35:40;;;;;;;16.83;10.23;;;6.50;99.90;;;;;;6240985;23;20012;-86
2022/10/09 06:38:06;;;;;;;15.07;9.13;;;6.50;99.90;;;;;;6240174;23;20396;-88
2022/10/09 06:40:37;;;;;;;13.77;8.40;;;6.80;99.90;;;;;;6241947;22;20016;-86
2022/10/09 06:43:04;;;;;;;20.27;12.13;;;6.50;99.90;;;;;;6238573;23;20303;-87
2022/10/09 06:45:30;;;;;;;16.30;9.57;;;6.50;99.90;;;;;;6239561;23;20027;-88
2022/10/09 06:47:56;;;;;;;14.35;8.65;;;6.50;99.90;;;;;;6240231;22;20341;-87
2022/10/09 06:50:22;;;;;;;10.43;6.70;;;6.50;99.90;;;;;;6213669;23;20012;-86
2022/10/09 06:52:48;;;;;;;12.40;7.72;;;6.70;99.90;;;;;;6214406;23;20027;-86
2022/10/09 06:55:14;;;;;;;13.48;7.40;;;6.60;99.90;;;;;;6239770;22;20020;-87
2022/10/09 06:57:40;;;;;;;12.38;7.57;;;6.60;99.90;;;;;;6240803;23;20012;-87
2022/10/09 07:00:06;;;;;;;11.57;6.70;;;6.60;99.90;;;;;;6240332;22;20012;-87
2022/10/09 07:02:32;;;;;;;11.63;6.78;;;6.70;99.90;;;;;;6240972;22;20078;-87
2022/10/09 07:04:57;;;;;;;12.15;7.10;;;6.70;99.90;;;;;;6241052;22;20456;-87
2022/10/09 07:07:23;;;;;;;13.25;7.47;;;6.70;99.90;;;;;;6241713;23;20024;-88
2022/10/09 07:09:51;;;;;;;11.70;7.30;;;6.80;99.90;;;;;;6241447;22;20005;-87
2022/10/09 07:12:17;;;;;;;13.65;7.28;;;6.80;99.90;;;;;;6241605;22;20016;-87
2022/10/09 07:14:42;;;;;;;11.82;7.13;;;6.90;99.90;;;;;;6241106;23;20041;-87
2022/10/09 07:17:08;;;;;;;13.90;7.53;;;6.90;99.90;;;;;;6240200;23;20070;-87
2022/10/09 07:19:34;;;;;;;15.13;7.97;;;6.90;99.90;;;;;;6241706;22;20473;-87
2022/10/09 07:22:00;;;;;;;11.98;7.22;;;7.00;99.90;;;;;;6241205;22;20079;-85
2022/10/09 07:24:25;;;;;;;15.57;7.72;;;7.00;99.90;;;;;;6241407;23;20018;-85
2022/10/09 07:26:54;;;;;;;11.93;7.57;;;7.00;99.90;;;;;;6241806;23;20504;-84
2022/10/09 07:29:20;;;;;;;16.38;8.00;;;7.10;99.90;;;;;;6237343;23;20053;-83
2022/10/09 07:31:46;;;;;;;12.68;6.75;;;7.10;99.90;;;;;;6241272;23;20012;-85
2022/10/09 07:34:12;;;;;;;12.18;7.47;;;7.20;99.90;;;;;;6241213;23;20022;-85
2022/10/09 07:36:37;;;;;;;14.00;7.10;;;7.20;99.90;;;;;;6241452;22;20460;-85
2022/10/09 07:39:04;;;;;;;14.57;7.43;;;7.30;99.90;;;;;;6239665;23;20400;-85
2022/10/09 07:41:30;;;;;;;14.50;7.50;;;7.30;99.90;;;;;;6239863;23;20016;-85
2022/10/09 07:43:56;;;;;;;13.07;7.65;;;7.40;99.90;;;;;;6240829;23;20008;-85
2022/10/09 07:46:23;;;;;;;16.55;7.53;;;7.40;99.90;;;;;;6238385;23;20016;-85
2022/10/09 07:48:49;;;;;;;14.38;7.80;;;7.50;99.90;;;;;;6239927;23;20079;-85
2022/10/09 07:51:19;;;;;;;16.10;7.28;;;7.50;99.90;;;;;;6238946;23;20509;-85
2022/10/09 07:53:45;;;;;;;17.65;7.55;;;7.60;99.90;;;;;;6239333;23;20020;-85
2022/10/09 07:56:27;;;;;;;12.07;7.80;;;7.60;99.90;;;;;;6239498;22;20158;-85
2022/10/09 07:59:01;;;;;;;12.95;7.20;;;7.70;99.90;;;;;;6239125;23;20069;-87
2022/10/09 08:01:27;;;;;;;11.57;6.80;;;7.80;99.90;;;;;;6240410;22;20012;-86
2022/10/09 08:03:54;;;;;;;15.18;7.35;;;7.90;99.90;;;;;;6241240;22;20016;-86
2022/10/09 08:06:20;;;;;;;13.95;7.38;;;8.00;99.90;;;;;;6240888;22;20425;-84
2022/10/09 08:08:54;;;;;;;17.88;7.35;;;8.00;99.90;;;;;;6241302;22;20020;-84
2022/10/09 08:11:21;;;;;;;16.92;8.10;;;8.10;99.90;;;;;;6241609;22;20008;-83
2022/10/09 08:13:48;;;;;;;14.05;7.35;;;8.20;99.90;;;;;;6239087;23;20012;-84
2022/10/09 08:16:14;;;;;;;15.20;8.15;;;8.30;99.90;;;;;;6241073;22;20008;-82
2022/10/09 08:18:40;;;;;;;13.98;7.25;;;8.30;99.90;;;;;;6241012;22;20012;-83
2022/10/09 08:21:09;;;;;;;12.82;7.18;;;8.40;99.90;;;;;;6241191;23;20012;-81
2022/10/09 08:23:35;;;;;;;15.52;7.50;;;8.70;99.90;;;;;;6241555;22;20023;-83
2022/10/09 08:26:01;;;;;;;16.77;7.88;;;8.60;99.90;;;;;;6241318;22;20051;-82
2022/10/09 08:28:27;;;;;;;16.33;6.90;;;8.60;99.90;;;;;;6241011;22;20417;-82
2022/10/09 08:30:53;;;;;;;16.58;7.00;;;8.60;99.90;;;;;;6241333;23;20012;-83
2022/10/09 08:33:20;;;;;;;14.07;6.85;;;8.70;99.90;;;;;;6240545;23;20012;-82
2022/10/09 08:35:48;;;;;;;14.50;6.82;;;8.70;99.90;;;;;;6240952;22;20057;-82
2022/10/09 08:38:14;;;;;;;17.48;7.60;;;8.80;99.90;;;;;;6240786;22;20020;-82
2022/10/09 08:41:27;;;;;;;15.27;7.05;;;9.00;99.90;;;;;;6241166;22;20004;-83
2022/10/09 08:44:28;;;;;;;13.00;6.75;;;9.00;99.90;;;;;;6118102;23;20018;-83
2022/10/09 08:47:08;;;;;;;13.15;6.60;;;9.10;99.90;;;;;;6116418;23;20062;-83
2022/10/09 08:49:55;;;;;;;16.80;7.03;;;9.10;99.90;;;;;;6121023;23;20073;-83
2022/10/09 08:52:38;;;;;;;18.60;7.50;;;9.20;99.90;;;;;;6120927;23;20056;-83
2022/10/09 08:55:28;;;;;;;18.85;7.75;;;9.30;99.90;;;;;;6120997;23;20425;-83
2022/10/09 08:57:59;;;;;;;17.73;7.82;;;9.40;99.90;;;;;;6095700;23;20089;-83
2022/10/09 09:00:34;;;;;;;13.88;7.35;;;9.50;99.90;;;;;;6120663;23;20092;-83
2022/10/09 09:03:18;;;;;;;11.02;6.15;;;9.60;99.90;;;;;;6120292;23;20073;-83
2022/10/09 09:05:54;;;;;;;16.25;6.68;;;9.70;99.90;;;;;;6121341;23;20029;-83
2022/10/09 09:08:43;;;;;;;13.05;5.97;;;9.80;99.90;;;;;;6120844;23;20014;-83
2022/10/09 09:11:25;;;;;;;13.35;5.07;;;10.00;99.90;;;;;;6120218;23;20089;-83
2022/10/09 09:14:00;;;;;;;11.55;4.60;;;10.20;99.90;;;;;;6120826;23;20013;-83
2022/10/09 09:16:25;;;;;;;;;;;10.40;99.90;;;;;;6121925;23;20018;-84
2022/10/09 09:19:22;;;;;;;8.48;3.78;;;10.60;99.90;;;;;;6242130;23;19923;-83
2022/10/09 09:21:52;;;;;;;10.05;4.90;;;10.80;99.90;;;;;;6243388;23;20019;-82
2022/10/09 09:24:32;;;;;;;8.80;3.70;;;11.00;99.90;;;;;;6243466;23;20032;-86
2022/10/09 09:27:01;;;;;;;9.75;3.75;;;11.40;99.90;;;;;;6242363;23;20005;-86
2022/10/09 09:29:30;;;;;;;10.02;3.90;;;11.50;99.90;;;;;;6215135;23;20108;-86
2022/10/09 09:32:00;;;;;;;14.43;4.43;;;11.80;99.90;;;;;;6240895;23;20066;-86
2022/10/09 09:34:40;;;;;;;9.15;3.40;;;11.80;99.90;;;;;;6241938;22;20012;-87
2022/10/09 09:37:09;;;;;;;10.10;3.08;;;12.00;99.90;;;;;;6243141;22;20048;-86
2022/10/09 09:39:36;;;;;;;16.45;3.45;;;12.10;99.90;;;;;;6240669;23;20048;-85
2022/10/09 09:42:13;;;;;;;7.90;2.90;;;12.30;99.90;;;;;;6242006;22;20090;-88
2022/10/09 09:44:51;;;;;;;9.40;3.00;;;12.40;99.90;;;;;;6240325;23;20016;-86
2022/10/09 09:47:31;;;;;;;10.50;3.13;;;12.60;99.90;;;;;;6240469;23;20027;-86
2022/10/09 09:50:00;;;;;;;9.70;2.72;;;12.70;99.90;;;;;;6241262;23;20051;-84
2022/10/09 09:52:29;;;;;;;7.78;2.63;;;12.90;99.90;;;;;;6241914;22;20083;-86
2022/10/09 09:54:58;;;;;;;10.73;2.90;;;12.90;99.90;;;;;;6241495;22;20338;-85
2022/10/09 09:57:32;;;;;;;9.75;2.75;;;13.10;99.90;;;;;;6241834;22;20314;-86
2022/10/09 10:00:06;;;;;;;10.57;2.67;;;13.20;99.90;;;;;;6240851;23;20349;-85
2022/10/09 10:02:32;;;;;;;8.95;2.35;;;13.30;99.90;;;;;;6242811;23;20091;-85
2022/10/09 10:05:14;;;;;;;5.70;2.30;;;13.40;99.90;;;;;;6240358;23;20455;-85
2022/10/09 10:07:40;;;;;;;9.63;2.80;;;13.50;99.90;;;;;;6242266;22;20008;-85
2022/10/09 10:10:12;;;;;;;7.93;2.97;;;13.80;99.90;;;;;;6242032;23;20015;-86
2022/10/09 10:12:58;;;;;;;8.15;2.20;;;13.80;99.90;;;;;;6242249;22;20012;-86
2022/10/09 10:15:32;;;;;;;7.80;2.10;;;14.00;99.90;;;;;;6242717;22;20016;-86
2022/10/09 10:18:06;;;;;;;8.77;2.95;;;14.10;99.90;;;;;;6240703;23;20018;-86
2022/10/09 10:20:41;;;;;;;10.35;2.20;;;14.20;99.90;;;;;;6241364;23;20008;-85
2022/10/09 10:23:24;;;;;;;7.10;2.30;;;14.40;99.90;;;;;;6243275;22;20012;-82
2022/10/09 10:25:52;;;;;;;7.82;2.42;;;14.60;99.90;;;;;;6242733;22;20012;-84
2022/10/09 10:28:31;;;;;;;8.95;2.33;;;14.40;99.90;;;;;;6242688;22;20008;-84
2022/10/09 10:31:01;;;;;;;8.25;2.88;;;14.50;99.90;;;;;;6241020;23;20016;-83
2022/10/09 10:33:30;;;;;;;8.30;1.85;;;14.80;99.90;;;;;;6240694;23;20019;-83
2022/10/09 10:35:58;;;;;;;8.65;2.10;;;14.70;99.90;;;;;;6240994;22;20441;-84
2022/10/09 10:38:31;;;;;;;7.05;1.90;;;14.80;99.90;;;;;;6240111;23;20012;-84
2022/10/09 10:41:08;;;;;;;9.48;2.35;;;14.90;99.90;;;;;;6239922;22;20563;-84
2022/10/09 10:43:43;;;;;;;5.88;1.85;;;14.90;99.90;;;;;;6239820;23;20441;-84
2022/10/09 10:46:35;;;;;;;22.17;2.60;;;14.90;99.90;;;;;;6239856;22;20011;-85
2022/10/09 10:49:00;;;;;;;10.18;2.30;;;15.00;99.90;;;;;;6240703;22;20019;-85
2022/10/09 10:51:47;;;;;;;8.52;1.70;;;15.10;99.90;;;;;;6240319;23;20016;-85
2022/10/09 10:54:47;;;;;;;6.07;1.30;;;15.10;99.90;;;;;;6239109;23;20136;-84
2022/10/09 10:57:40;;;;;;;8.52;1.63;;;15.20;99.90;;;;;;6219962;23;20024;-85
2022/10/09 11:00:10;;;;;;;6.75;1.95;;;15.30;99.90;;;;;;6239753;23;20441;-85
2022/10/09 11:03:28;;;;;;;7.47;1.83;;;15.40;99.90;;;;;;6239949;23;20451;-85
2022/10/09 11:06:04;;;;;;;7.55;1.70;;;15.40;99.90;;;;;;6240239;23;20388;-85
2022/10/09 11:08:38;;;;;;;6.22;1.30;;;15.40;99.90;;;;;;6240635;22;20012;-84
2022/10/09 11:11:18;;;;;;;7.72;1.67;;;15.50;99.90;;;;;;6241446;23;20034;-84
2022/10/09 11:13:55;;;;;;;4.40;1.17;;;15.60;99.90;;;;;;6239813;23;20020;-85
2022/10/09 11:17:18;;;;;;;5.75;1.15;;;15.60;99.90;;;;;;6239940;23;20019;-84
2022/10/09 11:20:04;;;;;;;7.05;1.60;;;15.80;99.90;;;;;;6094432;23;20078;-85
2022/10/09 11:22:32;;;;;;;8.38;1.58;;;15.80;99.90;;;;;;6118610;23;20017;-85
2022/10/09 11:25:03;;;;;;;7.30;1.00;;;15.90;99.90;;;;;;6070338;23;20464;-85
2022/10/09 11:27:50;;;;;;;6.15;1.42;;;15.90;99.90;;;;;;6118672;23;20073;-84
2022/10/09 11:30:17;;;;;;;9.65;1.27;;;16.00;99.90;;;;;;6118973;23;20013;-84
2022/10/09 11:32:58;;;;;;;5.13;1.23;;;16.20;99.90;;;;;;6118686;23;20025;-84
2022/10/09 11:35:29;;;;;;;8.95;1.40;;;16.30;99.90;;;;;;6119081;23;20025;-84
2022/10/09 11:38:02;;;;;;;4.97;1.15;;;16.30;99.90;;;;;;6118479;23;20462;-85
2022/10/09 11:40:39;;;;;;;5.45;1.13;;;16.30;99.90;;;;;;6118362;23;20391;-85
2022/10/09 11:43:20;;;;;;;7.30;1.33;;;16.40;99.90;;;;;;6118784;23;20018;-85
2022/10/09 11:45:55;;;;;;;5.45;1.27;;;16.50;99.90;;;;;;6118633;23;20034;-85
2022/10/09 11:48:30;;;;;;;5.47;1.23;;;16.60;99.90;;;;;;6118499;23;20056;-84
2022/10/09 11:51:39;;;;;;;11.05;1.10;;;16.50;99.90;;;;;;6191787;23;20089;-85
2022/10/09 11:54:15;;;;;;;5.55;1.13;;;16.50;99.90;;;;;;6241611;22;20113;-85
2022/10/09 11:56:56;;;;;;;6.82;1.10;;;16.60;99.90;;;;;;6239400;23;20441;-85
2022/10/09 11:59:30;;;;;;;10.32;1.25;;;16.60;99.90;;;;;;6241397;22;20008;-85
2022/10/09 12:02:11;;;;;;;7.07;1.40;;;16.70;99.90;;;;;;6241555;22;20079;-84
2022/10/09 12:04:37;;;;;;;5.53;1.20;;;16.70;99.90;;;;;;6239078;23;20028;-85
2022/10/09 12:07:08;;;;;;;9.45;1.52;;;16.70;99.90;;;;;;6240721;23;20008;-85
2022/10/09 12:09:39;;;;;;;7.00;1.13;;;16.70;99.90;;;;;;6241109;22;20012;-84
2022/10/09 12:12:15;;;;;;;8.57;1.60;;;16.80;99.90;;;;;;6239580;23;20020;-84
2022/10/09 12:14:42;;;;;;;9.65;1.90;;;16.80;99.90;;;;;;6241178;23;20012;-84
2022/10/09 12:17:15;;;;;;;4.53;1.30;;;17.10;99.90;;;;;;6241460;22;20094;-84
2022/10/09 12:19:41;;;;;;;7.60;1.48;;;17.10;99.90;;;;;;6240001;22;20012;-84
2022/10/09 12:22:26;;;;;;;8.38;1.80;;;17.10;99.90;;;;;;6241637;23;20018;-84
2022/10/09 12:24:57;;;;;;;9.68;1.73;;;17.20;99.90;;;;;;6240035;23;20337;-84
2022/10/09 12:27:25;;;;;;;8.48;1.95;;;17.20;99.90;;;;;;6239760;23;20055;-84
2022/10/09 12:29:58;;;;;;;6.85;1.70;;;17.20;99.90;;;;;;6241370;22;20008;-85
2022/10/09 12:32:37;;;;;;;10.75;1.70;;;17.30;99.90;;;;;;6241542;22;20447;-84
2022/10/09 12:35:20;;;;;;;5.88;1.55;;;17.30;99.90;;;;;;6241086;22;20050;-84
2022/10/09 12:37:45;;;;;;;4.85;1.30;;;17.30;99.90;;;;;;6239495;23;20016;-84
2022/10/09 12:40:19;;;;;;;5.88;1.98;;;17.30;98.40;;;;;;6241219;23;20023;-85
2022/10/09 12:42:45;;;;;;;7.32;1.63;;;17.30;99.90;;;;;;6241246;22;20044;-85
2022/10/09 12:45:20;;;;;;;9.32;1.77;;;17.30;99.90;;;;;;6240940;23;20492;-85
2022/10/09 12:47:47;;;;;;;11.60;1.60;;;17.50;99.20;;;;;;6239094;23;20333;-85
2022/10/09 12:50:15;;;;;;;9.10;2.28;;;17.40;99.20;;;;;;6240757;22;20611;-84
2022/10/09 12:52:59;;;;;;;6.05;2.15;;;17.40;99.00;;;;;;6239583;23;20012;-85
2022/10/09 12:55:27;;;;;;;9.63;2.50;;;17.40;99.40;;;;;;6240845;22;20047;-85
2022/10/09 12:57:56;;;;;;;6.32;1.80;;;17.40;99.40;;;;;;6241180;23;20016;-85
2022/10/09 13:00:22;;;;;;;8.70;1.83;;;17.50;99.00;;;;;;6241523;22;20031;-84
2022/10/09 13:02:47;;;;;;;6.30;1.80;;;17.60;99.90;;;;;;6238516;23;20016;-85
2022/10/09 13:05:13;;;;;;;6.88;1.65;;;17.70;99.90;;;;;;6240643;23;20009;-85